sensor_id;sensor_type;location;lat;lon;timestamp;P1;durP1;ratioP1;P2;durP2;ratioP2
37267;SDS011;23154;52.542;13.362;2022-08-23T00:00:05;18.85;;;5.10;;
37267;SDS011;23154;52.542;13.362;2022-08-23T00:02:32;15.25;;;4.70;;
37267;SDS011;23154;52.542;13.362;2022-08-23T00:04:58;16.55;;;4.95;;
37267;SDS011;23154;52.542;13.362;2022-08-23T00:07:23;16.95;;;4.85;;
37267;SDS011;23154;52.542;13.362;2022-08-23T00:09:49;14.55;;;5.22;;
37267;SDS011;23154;52.542;13.362;2022-08-23T00:12:16;13.80;;;4.78;;
37267;SDS011;23154;52.542;13.362;2022-08-23T00:14:47;14.18;;;4.90;;
37267;SDS011;23154;52.542;13.362;2022-08-23T00:17:17;18.33;;;5.22;;
37267;SDS011;23154;52.542;13.362;2022-08-23T00:19:43;15.25;;;5.07;;
37267;SDS011;23154;52.542;13.362;2022-08-23T00:22:09;16.77;;;5.75;;
37267;SDS011;23154;52.542;13.362;2022-08-23T00:24:35;15.00;;;5.10;;
37267;SDS011;23154;52.542;13.362;2022-08-23T00:27:07;18.15;;;5.47;;
37267;SDS011;23154;52.542;13.362;2022-08-23T00:29:42;16.73;;;5.80;;
37267;SDS011;23154;52.542;13.362;2022-08-23T00:32:12;14.55;;;5.30;;
37267;SDS011;23154;52.542;13.362;2022-08-23T00:34:40;16.25;;;5.22;;
37267;SDS011;23154;52.542;13.362;2022-08-23T00:37:06;17.80;;;4.97;;
37267;SDS011;23154;52.542;13.362;2022-08-23T00:39:33;14.55;;;4.95;;
37267;SDS011;23154;52.542;13.362;2022-08-23T00:42:02;18.25;;;5.30;;
37267;SDS011;23154;52.542;13.362;2022-08-23T00:44:52;14.93;;;4.93;;
37267;SDS011;23154;52.542;13.362;2022-08-23T00:47:36;15.32;;;5.00;;
37267;SDS011;23154;52.542;13.362;2022-08-23T00:52:32;14.70;;;5.03;;
37267;SDS011;23154;52.542;13.362;2022-08-23T00:55:03;16.60;;;5.00;;
37267;SDS011;23154;52.542;13.362;2022-08-23T00:57:29;13.93;;;4.53;;
37267;SDS011;23154;52.542;13.362;2022-08-23T00:59:56;18.52;;;4.80;;
37267;SDS011;23154;52.542;13.362;2022-08-23T01:02:22;17.00;;;4.95;;
37267;SDS011;23154;52.542;13.362;2022-08-23T01:04:51;13.98;;;4.65;;
37267;SDS011;23154;52.542;13.362;2022-08-23T01:12:41;18.58;;;5.30;;
37267;SDS011;23154;52.542;13.362;2022-08-23T01:15:18;15.82;;;5.47;;
37267;SDS011;23154;52.542;13.362;2022-08-23T01:18:06;16.40;;;4.75;;
37267;SDS011;23154;52.542;13.362;2022-08-23T01:20:41;13.80;;;4.55;;
37267;SDS011;23154;52.542;13.362;2022-08-23T01:23:27;15.73;;;4.55;;
37267;SDS011;23154;52.542;13.362;2022-08-23T01:26:10;16.02;;;4.80;;
37267;SDS011;23154;52.542;13.362;2022-08-23T01:28:38;14.25;;;4.38;;
37267;SDS011;23154;52.542;13.362;2022-08-23T01:31:05;14.93;;;4.10;;
37267;SDS011;23154;52.542;13.362;2022-08-23T01:33:31;13.60;;;4.25;;
37267;SDS011;23154;52.542;13.362;2022-08-23T01:35:58;16.95;;;4.32;;
37267;SDS011;23154;52.542;13.362;2022-08-23T01:38:24;17.58;;;4.72;;
37267;SDS011;23154;52.542;13.362;2022-08-23T01:40:50;17.55;;;4.22;;
37267;SDS011;23154;52.542;13.362;2022-08-23T01:43:18;13.93;;;4.13;;
37267;SDS011;23154;52.542;13.362;2022-08-23T01:45:45;15.52;;;4.30;;
37267;SDS011;23154;52.542;13.362;2022-08-23T01:48:13;12.65;;;4.30;;
37267;SDS011;23154;52.542;13.362;2022-08-23T01:50:39;13.52;;;4.55;;
37267;SDS011;23154;52.542;13.362;2022-08-23T01:53:05;12.35;;;3.70;;
37267;SDS011;23154;52.542;13.362;2022-08-23T01:55:32;11.10;;;3.67;;
37267;SDS011;23154;52.542;13.362;2022-08-23T01:58:00;12.77;;;3.70;;
37267;SDS011;23154;52.542;13.362;2022-08-23T02:00:35;13.88;;;3.80;;
37267;SDS011;23154;52.542;13.362;2022-08-23T02:03:02;10.30;;;3.60;;
37267;SDS011;23154;52.542;13.362;2022-08-23T02:05:30;11.88;;;3.72;;
37267;SDS011;23154;52.542;13.362;2022-08-23T02:07:56;8.50;;;3.05;;
37267;SDS011;23154;52.542;13.362;2022-08-23T02:10:42;13.38;;;3.30;;
37267;SDS011;23154;52.542;13.362;2022-08-23T02:13:07;13.45;;;3.70;;
37267;SDS011;23154;52.542;13.362;2022-08-23T02:15:33;15.35;;;3.80;;
37267;SDS011;23154;52.542;13.362;2022-08-23T02:17:59;10.48;;;3.30;;
37267;SDS011;23154;52.542;13.362;2022-08-23T02:20:24;17.00;;;4.22;;
37267;SDS011;23154;52.542;13.362;2022-08-23T02:22:50;14.77;;;3.35;;
37267;SDS011;23154;52.542;13.362;2022-08-23T02:25:15;12.63;;;3.53;;
37267;SDS011;23154;52.542;13.362;2022-08-23T02:27:41;14.43;;;3.67;;
37267;SDS011;23154;52.542;13.362;2022-08-23T02:30:07;15.50;;;3.50;;
37267;SDS011;23154;52.542;13.362;2022-08-23T02:32:32;11.20;;;3.35;;
37267;SDS011;23154;52.542;13.362;2022-08-23T02:34:58;13.20;;;3.80;;
37267;SDS011;23154;52.542;13.362;2022-08-23T02:37:23;13.48;;;3.72;;
37267;SDS011;23154;52.542;13.362;2022-08-23T02:39:49;16.25;;;4.22;;
37267;SDS011;23154;52.542;13.362;2022-08-23T02:42:15;13.05;;;3.60;;
37267;SDS011;23154;52.542;13.362;2022-08-23T02:44:41;10.95;;;3.58;;
37267;SDS011;23154;52.542;13.362;2022-08-23T02:47:07;13.45;;;3.72;;
37267;SDS011;23154;52.542;13.362;2022-08-23T02:49:33;15.27;;;4.05;;
37267;SDS011;23154;52.542;13.362;2022-08-23T02:51:59;14.38;;;3.55;;
37267;SDS011;23154;52.542;13.362;2022-08-23T02:54:25;12.48;;;3.85;;
37267;SDS011;23154;52.542;13.362;2022-08-23T02:56:50;12.23;;;3.40;;
37267;SDS011;23154;52.542;13.362;2022-08-23T02:59:16;12.55;;;3.80;;
37267;SDS011;23154;52.542;13.362;2022-08-23T03:01:42;14.90;;;4.20;;
37267;SDS011;23154;52.542;13.362;2022-08-23T03:04:09;16.20;;;4.25;;
37267;SDS011;23154;52.542;13.362;2022-08-23T03:06:35;14.77;;;4.22;;
37267;SDS011;23154;52.542;13.362;2022-08-23T03:09:03;12.95;;;3.97;;
37267;SDS011;23154;52.542;13.362;2022-08-23T03:11:29;17.30;;;4.25;;
37267;SDS011;23154;52.542;13.362;2022-08-23T03:13:55;15.65;;;4.40;;
37267;SDS011;23154;52.542;13.362;2022-08-23T03:16:22;16.77;;;4.20;;
37267;SDS011;23154;52.542;13.362;2022-08-23T03:18:48;14.57;;;4.40;;
37267;SDS011;23154;52.542;13.362;2022-08-23T03:21:15;18.65;;;5.03;;
37267;SDS011;23154;52.542;13.362;2022-08-23T03:23:41;18.20;;;5.00;;
37267;SDS011;23154;52.542;13.362;2022-08-23T03:26:08;15.88;;;4.65;;
37267;SDS011;23154;52.542;13.362;2022-08-23T03:28:36;16.20;;;4.55;;
37267;SDS011;23154;52.542;13.362;2022-08-23T03:31:03;15.40;;;4.78;;
37267;SDS011;23154;52.542;13.362;2022-08-23T03:33:29;14.75;;;4.82;;
37267;SDS011;23154;52.542;13.362;2022-08-23T03:35:59;14.93;;;4.38;;
37267;SDS011;23154;52.542;13.362;2022-08-23T03:38:25;16.83;;;4.60;;
37267;SDS011;23154;52.542;13.362;2022-08-23T03:40:51;13.40;;;4.53;;
37267;SDS011;23154;52.542;13.362;2022-08-23T03:43:17;16.17;;;4.70;;
37267;SDS011;23154;52.542;13.362;2022-08-23T03:45:43;13.95;;;4.72;;
37267;SDS011;23154;52.542;13.362;2022-08-23T03:48:09;17.75;;;4.97;;
37267;SDS011;23154;52.542;13.362;2022-08-23T03:50:34;18.45;;;5.22;;
37267;SDS011;23154;52.542;13.362;2022-08-23T03:53:00;19.75;;;4.68;;
37267;SDS011;23154;52.542;13.362;2022-08-23T03:55:26;19.10;;;5.00;;
37267;SDS011;23154;52.542;13.362;2022-08-23T03:57:52;16.38;;;4.97;;
37267;SDS011;23154;52.542;13.362;2022-08-23T04:00:18;18.10;;;5.75;;
37267;SDS011;23154;52.542;13.362;2022-08-23T04:02:44;16.23;;;5.45;;
37267;SDS011;23154;52.542;13.362;2022-08-23T04:05:10;13.10;;;4.93;;
37267;SDS011;23154;52.542;13.362;2022-08-23T04:07:36;16.48;;;4.63;;
37267;SDS011;23154;52.542;13.362;2022-08-23T04:10:03;19.60;;;5.03;;
37267;SDS011;23154;52.542;13.362;2022-08-23T04:12:30;17.27;;;5.30;;
37267;SDS011;23154;52.542;13.362;2022-08-23T04:14:56;17.38;;;5.25;;
37267;SDS011;23154;52.542;13.362;2022-08-23T04:17:21;19.83;;;5.28;;
37267;SDS011;23154;52.542;13.362;2022-08-23T04:19:47;16.30;;;4.80;;
37267;SDS011;23154;52.542;13.362;2022-08-23T04:22:14;15.35;;;4.78;;
37267;SDS011;23154;52.542;13.362;2022-08-23T04:24:41;14.93;;;4.68;;
37267;SDS011;23154;52.542;13.362;2022-08-23T04:27:08;15.00;;;4.72;;
37267;SDS011;23154;52.542;13.362;2022-08-23T04:29:34;19.75;;;5.03;;
37267;SDS011;23154;52.542;13.362;2022-08-23T04:32:00;17.48;;;5.38;;
37267;SDS011;23154;52.542;13.362;2022-08-23T04:34:27;17.88;;;5.38;;
37267;SDS011;23154;52.542;13.362;2022-08-23T04:36:53;15.95;;;5.32;;
37267;SDS011;23154;52.542;13.362;2022-08-23T04:39:18;18.27;;;5.70;;
37267;SDS011;23154;52.542;13.362;2022-08-23T04:41:44;16.92;;;5.50;;
37267;SDS011;23154;52.542;13.362;2022-08-23T04:44:28;17.63;;;5.30;;
37267;SDS011;23154;52.542;13.362;2022-08-23T04:46:54;18.48;;;5.80;;
37267;SDS011;23154;52.542;13.362;2022-08-23T04:49:20;19.27;;;5.20;;
37267;SDS011;23154;52.542;13.362;2022-08-23T04:51:47;16.45;;;4.88;;
37267;SDS011;23154;52.542;13.362;2022-08-23T04:54:13;18.13;;;5.63;;
37267;SDS011;23154;52.542;13.362;2022-08-23T04:56:39;16.85;;;5.30;;
37267;SDS011;23154;52.542;13.362;2022-08-23T04:59:06;17.88;;;5.40;;
37267;SDS011;23154;52.542;13.362;2022-08-23T05:01:32;17.25;;;5.80;;
37267;SDS011;23154;52.542;13.362;2022-08-23T05:03:58;22.33;;;5.43;;
37267;SDS011;23154;52.542;13.362;2022-08-23T05:06:25;18.92;;;6.07;;
37267;SDS011;23154;52.542;13.362;2022-08-23T05:08:51;18.90;;;6.15;;
37267;SDS011;23154;52.542;13.362;2022-08-23T05:11:17;16.58;;;5.20;;
37267;SDS011;23154;52.542;13.362;2022-08-23T05:13:44;19.10;;;5.68;;
37267;SDS011;23154;52.542;13.362;2022-08-23T05:16:10;16.35;;;5.30;;
37267;SDS011;23154;52.542;13.362;2022-08-23T05:18:35;21.65;;;6.03;;
37267;SDS011;23154;52.542;13.362;2022-08-23T05:21:01;17.52;;;5.90;;
37267;SDS011;23154;52.542;13.362;2022-08-23T05:23:27;19.42;;;5.50;;
37267;SDS011;23154;52.542;13.362;2022-08-23T05:25:53;17.50;;;5.05;;
37267;SDS011;23154;52.542;13.362;2022-08-23T05:28:20;15.50;;;5.43;;
37267;SDS011;23154;52.542;13.362;2022-08-23T05:31:02;19.38;;;5.53;;
37267;SDS011;23154;52.542;13.362;2022-08-23T05:33:33;19.67;;;5.68;;
37267;SDS011;23154;52.542;13.362;2022-08-23T05:36:00;18.38;;;5.70;;
37267;SDS011;23154;52.542;13.362;2022-08-23T05:38:27;21.15;;;5.88;;
37267;SDS011;23154;52.542;13.362;2022-08-23T05:40:53;20.30;;;6.43;;
37267;SDS011;23154;52.542;13.362;2022-08-23T05:43:21;19.20;;;5.60;;
37267;SDS011;23154;52.542;13.362;2022-08-23T05:45:47;18.25;;;5.50;;
37267;SDS011;23154;52.542;13.362;2022-08-23T05:48:31;19.13;;;5.40;;
37267;SDS011;23154;52.542;13.362;2022-08-23T05:53:58;17.97;;;5.77;;
37267;SDS011;23154;52.542;13.362;2022-08-23T06:01:22;20.38;;;5.03;;
37267;SDS011;23154;52.542;13.362;2022-08-23T06:03:48;17.10;;;5.53;;
37267;SDS011;23154;52.542;13.362;2022-08-23T06:06:14;16.05;;;5.53;;
37267;SDS011;23154;52.542;13.362;2022-08-23T06:08:41;18.60;;;5.35;;
37267;SDS011;23154;52.542;13.362;2022-08-23T06:11:15;17.27;;;4.85;;
37267;SDS011;23154;52.542;13.362;2022-08-23T06:13:45;17.25;;;5.65;;
37267;SDS011;23154;52.542;13.362;2022-08-23T06:16:14;16.35;;;5.15;;
37267;SDS011;23154;52.542;13.362;2022-08-23T06:18:42;19.95;;;5.32;;
37267;SDS011;23154;52.542;13.362;2022-08-23T06:21:09;17.02;;;5.25;;
37267;SDS011;23154;52.542;13.362;2022-08-23T06:23:36;21.17;;;5.40;;
37267;SDS011;23154;52.542;13.362;2022-08-23T06:26:13;18.02;;;5.60;;
37267;SDS011;23154;52.542;13.362;2022-08-23T06:28:46;16.88;;;5.30;;
37267;SDS011;23154;52.542;13.362;2022-08-23T06:31:13;15.90;;;5.32;;
37267;SDS011;23154;52.542;13.362;2022-08-23T06:33:42;14.52;;;4.72;;
37267;SDS011;23154;52.542;13.362;2022-08-23T06:36:11;19.95;;;5.70;;
37267;SDS011;23154;52.542;13.362;2022-08-23T06:38:38;18.75;;;5.63;;
37267;SDS011;23154;52.542;13.362;2022-08-23T06:41:06;17.88;;;5.43;;
37267;SDS011;23154;52.542;13.362;2022-08-23T06:43:35;15.63;;;5.30;;
37267;SDS011;23154;52.542;13.362;2022-08-23T06:49:00;17.15;;;5.07;;
37267;SDS011;23154;52.542;13.362;2022-08-23T06:51:42;18.38;;;5.32;;
37267;SDS011;23154;52.542;13.362;2022-08-23T06:54:11;16.23;;;4.70;;
37267;SDS011;23154;52.542;13.362;2022-08-23T06:56:38;16.63;;;4.85;;
37267;SDS011;23154;52.542;13.362;2022-08-23T06:59:06;20.52;;;5.45;;
37267;SDS011;23154;52.542;13.362;2022-08-23T07:01:39;16.27;;;4.88;;
37267;SDS011;23154;52.542;13.362;2022-08-23T07:04:08;18.63;;;4.68;;
37267;SDS011;23154;52.542;13.362;2022-08-23T07:06:35;18.20;;;4.97;;
37267;SDS011;23154;52.542;13.362;2022-08-23T07:09:01;18.05;;;5.00;;
37267;SDS011;23154;52.542;13.362;2022-08-23T07:11:28;17.63;;;4.75;;
37267;SDS011;23154;52.542;13.362;2022-08-23T07:14:00;18.27;;;5.28;;
37267;SDS011;23154;52.542;13.362;2022-08-23T07:16:32;17.45;;;4.80;;
37267;SDS011;23154;52.542;13.362;2022-08-23T07:21:24;19.75;;;4.68;;
37267;SDS011;23154;52.542;13.362;2022-08-23T07:23:49;16.00;;;4.70;;
37267;SDS011;23154;52.542;13.362;2022-08-23T07:26:15;16.25;;;4.55;;
37267;SDS011;23154;52.542;13.362;2022-08-23T07:28:42;16.33;;;4.38;;
37267;SDS011;23154;52.542;13.362;2022-08-23T07:31:09;14.88;;;4.07;;
37267;SDS011;23154;52.542;13.362;2022-08-23T07:33:41;14.50;;;4.68;;
37267;SDS011;23154;52.542;13.362;2022-08-23T07:36:08;16.45;;;4.68;;
37267;SDS011;23154;52.542;13.362;2022-08-23T07:38:34;21.15;;;4.65;;
37267;SDS011;23154;52.542;13.362;2022-08-23T07:41:00;14.52;;;4.15;;
37267;SDS011;23154;52.542;13.362;2022-08-23T07:43:27;16.63;;;4.60;;
37267;SDS011;23154;52.542;13.362;2022-08-23T07:45:55;15.10;;;4.35;;
37267;SDS011;23154;52.542;13.362;2022-08-23T07:48:21;16.85;;;4.57;;
37267;SDS011;23154;52.542;13.362;2022-08-23T07:50:51;16.25;;;3.90;;
37267;SDS011;23154;52.542;13.362;2022-08-23T07:53:17;15.05;;;4.10;;
37267;SDS011;23154;52.542;13.362;2022-08-23T07:55:43;17.83;;;3.97;;
37267;SDS011;23154;52.542;13.362;2022-08-23T07:58:09;12.98;;;3.67;;
37267;SDS011;23154;52.542;13.362;2022-08-23T08:00:34;17.95;;;4.45;;
37267;SDS011;23154;52.542;13.362;2022-08-23T08:03:00;16.75;;;4.03;;
37267;SDS011;23154;52.542;13.362;2022-08-23T08:05:26;17.88;;;4.03;;
37267;SDS011;23154;52.542;13.362;2022-08-23T08:07:51;15.25;;;4.32;;
37267;SDS011;23154;52.542;13.362;2022-08-23T08:10:17;16.50;;;4.30;;
37267;SDS011;23154;52.542;13.362;2022-08-23T08:12:43;16.52;;;4.03;;
37267;SDS011;23154;52.542;13.362;2022-08-23T08:15:08;12.68;;;3.60;;
37267;SDS011;23154;52.542;13.362;2022-08-23T08:17:34;18.13;;;4.20;;
37267;SDS011;23154;52.542;13.362;2022-08-23T08:20:00;16.52;;;4.05;;
37267;SDS011;23154;52.542;13.362;2022-08-23T08:22:25;19.23;;;4.00;;
37267;SDS011;23154;52.542;13.362;2022-08-23T08:24:51;13.25;;;3.22;;
37267;SDS011;23154;52.542;13.362;2022-08-23T08:27:16;15.10;;;4.05;;
37267;SDS011;23154;52.542;13.362;2022-08-23T08:29:42;14.05;;;3.42;;
37267;SDS011;23154;52.542;13.362;2022-08-23T08:32:08;15.52;;;3.58;;
37267;SDS011;23154;52.542;13.362;2022-08-23T08:34:34;14.55;;;3.22;;
37267;SDS011;23154;52.542;13.362;2022-08-23T08:37:00;11.88;;;3.00;;
37267;SDS011;23154;52.542;13.362;2022-08-23T08:39:27;15.82;;;3.88;;
37267;SDS011;23154;52.542;13.362;2022-08-23T08:44:54;14.38;;;3.83;;
37267;SDS011;23154;52.542;13.362;2022-08-23T08:52:50;12.95;;;3.17;;
37267;SDS011;23154;52.542;13.362;2022-08-23T08:55:21;16.38;;;3.58;;
37267;SDS011;23154;52.542;13.362;2022-08-23T09:02:47;14.05;;;3.58;;
37267;SDS011;23154;52.542;13.362;2022-08-23T09:05:21;14.32;;;3.55;;
37267;SDS011;23154;52.542;13.362;2022-08-23T09:18:33;12.68;;;3.10;;
37267;SDS011;23154;52.542;13.362;2022-08-23T09:21:00;14.85;;;3.70;;
37267;SDS011;23154;52.542;13.362;2022-08-23T09:23:32;14.20;;;3.20;;
37267;SDS011;23154;52.542;13.362;2022-08-23T09:26:01;12.20;;;3.00;;
37267;SDS011;23154;52.542;13.362;2022-08-23T09:28:30;16.15;;;3.33;;
37267;SDS011;23154;52.542;13.362;2022-08-23T09:31:00;16.42;;;3.67;;
37267;SDS011;23154;52.542;13.362;2022-08-23T09:33:43;14.63;;;3.10;;
37267;SDS011;23154;52.542;13.362;2022-08-23T09:39:38;13.40;;;3.75;;
37267;SDS011;23154;52.542;13.362;2022-08-23T09:41:52;16.27;;;3.67;;
37267;SDS011;23154;52.542;13.362;2022-08-23T09:44:51;13.77;;;3.45;;
37267;SDS011;23154;52.542;13.362;2022-08-23T09:47:10;14.07;;;3.65;;
37267;SDS011;23154;52.542;13.362;2022-08-23T09:49:39;15.95;;;3.38;;
37267;SDS011;23154;52.542;13.362;2022-08-23T09:54:58;12.82;;;3.35;;
37267;SDS011;23154;52.542;13.362;2022-08-23T09:57:33;13.75;;;3.22;;
37267;SDS011;23154;52.542;13.362;2022-08-23T10:00:44;15.20;;;3.55;;
37267;SDS011;23154;52.542;13.362;2022-08-23T10:02:47;13.13;;;3.00;;
37267;SDS011;23154;52.542;13.362;2022-08-23T10:05:18;13.45;;;3.10;;
37267;SDS011;23154;52.542;13.362;2022-08-23T10:07:54;12.95;;;3.25;;
37267;SDS011;23154;52.542;13.362;2022-08-23T10:10:31;11.93;;;3.00;;
37267;SDS011;23154;52.542;13.362;2022-08-23T10:13:10;15.48;;;3.53;;
37267;SDS011;23154;52.542;13.362;2022-08-23T10:15:47;11.43;;;3.17;;
37267;SDS011;23154;52.542;13.362;2022-08-23T10:21:21;16.83;;;3.40;;
37267;SDS011;23154;52.542;13.362;2022-08-23T10:26:32;15.02;;;3.70;;
37267;SDS011;23154;52.542;13.362;2022-08-23T10:34:18;13.50;;;3.53;;
37267;SDS011;23154;52.542;13.362;2022-08-23T10:39:33;14.63;;;3.70;;
37267;SDS011;23154;52.542;13.362;2022-08-23T10:42:15;13.30;;;3.55;;
37267;SDS011;23154;52.542;13.362;2022-08-23T10:45:00;11.02;;;2.97;;
37267;SDS011;23154;52.542;13.362;2022-08-23T10:47:34;13.68;;;3.30;;
37267;SDS011;23154;52.542;13.362;2022-08-23T10:50:11;16.85;;;3.47;;
37267;SDS011;23154;52.542;13.362;2022-08-23T10:55:24;14.73;;;3.70;;
37267;SDS011;23154;52.542;13.362;2022-08-23T10:58:01;12.50;;;3.17;;
37267;SDS011;23154;52.542;13.362;2022-08-23T11:00:29;11.63;;;2.63;;
37267;SDS011;23154;52.542;13.362;2022-08-23T11:02:58;10.48;;;2.90;;
37267;SDS011;23154;52.542;13.362;2022-08-23T11:09:08;11.45;;;3.00;;
37267;SDS011;23154;52.542;13.362;2022-08-23T11:16:59;10.40;;;3.00;;
37267;SDS011;23154;52.542;13.362;2022-08-23T11:19:47;10.85;;;3.03;;
37267;SDS011;23154;52.542;13.362;2022-08-23T11:22:25;13.73;;;2.78;;
37267;SDS011;23154;52.542;13.362;2022-08-23T11:24:55;9.00;;;2.53;;
37267;SDS011;23154;52.542;13.362;2022-08-23T11:27:28;12.60;;;2.65;;
37267;SDS011;23154;52.542;13.362;2022-08-23T11:32:59;13.45;;;2.78;;
37267;SDS011;23154;52.542;13.362;2022-08-23T11:35:49;12.75;;;2.97;;
37267;SDS011;23154;52.542;13.362;2022-08-23T11:44:25;13.27;;;2.72;;
37267;SDS011;23154;52.542;13.362;2022-08-23T11:47:00;10.13;;;3.10;;
37267;SDS011;23154;52.542;13.362;2022-08-23T12:18:35;10.40;;;2.50;;
37267;SDS011;23154;52.542;13.362;2022-08-23T12:21:03;13.30;;;2.80;;
37267;SDS011;23154;52.542;13.362;2022-08-23T12:23:41;12.73;;;3.42;;
37267;SDS011;23154;52.542;13.362;2022-08-23T12:26:21;13.77;;;2.95;;
37267;SDS011;23154;52.542;13.362;2022-08-23T12:29:03;9.57;;;2.58;;
37267;SDS011;23154;52.542;13.362;2022-08-23T12:40:22;10.98;;;2.60;;
37267;SDS011;23154;52.542;13.362;2022-08-23T12:43:01;15.73;;;2.75;;
37267;SDS011;23154;52.542;13.362;2022-08-23T12:45:39;9.10;;;2.53;;
37267;SDS011;23154;52.542;13.362;2022-08-23T12:48:09;14.63;;;2.85;;
37267;SDS011;23154;52.542;13.362;2022-08-23T12:50:37;10.27;;;2.58;;
37267;SDS011;23154;52.542;13.362;2022-08-23T12:53:06;15.50;;;2.72;;
37267;SDS011;23154;52.542;13.362;2022-08-23T12:55:36;12.18;;;2.60;;
37267;SDS011;23154;52.542;13.362;2022-08-23T12:58:05;10.32;;;2.60;;
37267;SDS011;23154;52.542;13.362;2022-08-23T13:00:38;12.30;;;2.63;;
37267;SDS011;23154;52.542;13.362;2022-08-23T13:05:37;11.32;;;2.42;;
37267;SDS011;23154;52.542;13.362;2022-08-23T13:08:09;10.30;;;2.40;;
37267;SDS011;23154;52.542;13.362;2022-08-23T13:10:38;10.82;;;2.58;;
37267;SDS011;23154;52.542;13.362;2022-08-23T13:13:07;10.75;;;2.25;;
37267;SDS011;23154;52.542;13.362;2022-08-23T13:15:40;11.63;;;2.40;;
37267;SDS011;23154;52.542;13.362;2022-08-23T13:18:22;13.90;;;2.75;;
37267;SDS011;23154;52.542;13.362;2022-08-23T13:21:16;8.32;;;2.33;;
37267;SDS011;23154;52.542;13.362;2022-08-23T13:23:43;11.93;;;2.65;;
37267;SDS011;23154;52.542;13.362;2022-08-23T13:31:56;8.80;;;2.40;;
37267;SDS011;23154;52.542;13.362;2022-08-23T13:34:42;10.07;;;2.10;;
37267;SDS011;23154;52.542;13.362;2022-08-23T13:40:10;12.63;;;3.15;;
37267;SDS011;23154;52.542;13.362;2022-08-23T13:42:44;10.98;;;2.70;;
37267;SDS011;23154;52.542;13.362;2022-08-23T13:45:20;12.20;;;2.75;;
37267;SDS011;23154;52.542;13.362;2022-08-23T13:48:06;12.73;;;3.20;;
37267;SDS011;23154;52.542;13.362;2022-08-23T13:50:38;12.07;;;2.50;;
37267;SDS011;23154;52.542;13.362;2022-08-23T13:53:06;11.88;;;2.50;;
37267;SDS011;23154;52.542;13.362;2022-08-23T13:55:33;11.70;;;2.33;;
37267;SDS011;23154;52.542;13.362;2022-08-23T13:58:13;10.57;;;2.50;;
37267;SDS011;23154;52.542;13.362;2022-08-23T14:00:53;11.50;;;2.67;;
37267;SDS011;23154;52.542;13.362;2022-08-23T14:03:19;9.18;;;2.60;;
37267;SDS011;23154;52.542;13.362;2022-08-23T14:05:44;8.38;;;2.22;;
37267;SDS011;23154;52.542;13.362;2022-08-23T14:08:15;10.00;;;2.40;;
37267;SDS011;23154;52.542;13.362;2022-08-23T14:10:41;11.20;;;2.40;;
37267;SDS011;23154;52.542;13.362;2022-08-23T14:13:07;12.27;;;2.65;;
37267;SDS011;23154;52.542;13.362;2022-08-23T14:15:35;11.90;;;2.40;;
37267;SDS011;23154;52.542;13.362;2022-08-23T14:18:01;11.80;;;2.25;;
37267;SDS011;23154;52.542;13.362;2022-08-23T14:20:27;10.35;;;2.60;;
37267;SDS011;23154;52.542;13.362;2022-08-23T14:22:53;11.25;;;2.58;;
37267;SDS011;23154;52.542;13.362;2022-08-23T14:25:19;11.60;;;2.72;;
37267;SDS011;23154;52.542;13.362;2022-08-23T14:27:45;10.07;;;2.30;;
37267;SDS011;23154;52.542;13.362;2022-08-23T14:33:07;11.23;;;2.17;;
37267;SDS011;23154;52.542;13.362;2022-08-23T14:35:33;11.88;;;2.97;;
37267;SDS011;23154;52.542;13.362;2022-08-23T14:37:58;16.20;;;3.40;;
37267;SDS011;23154;52.542;13.362;2022-08-23T14:40:24;12.95;;;2.65;;
37267;SDS011;23154;52.542;13.362;2022-08-23T14:42:49;9.43;;;2.45;;
37267;SDS011;23154;52.542;13.362;2022-08-23T14:45:15;9.80;;;2.38;;
37267;SDS011;23154;52.542;13.362;2022-08-23T14:47:41;11.57;;;2.88;;
37267;SDS011;23154;52.542;13.362;2022-08-23T14:50:08;10.98;;;2.53;;
37267;SDS011;23154;52.542;13.362;2022-08-23T14:52:36;10.95;;;2.10;;
37267;SDS011;23154;52.542;13.362;2022-08-23T14:55:04;15.23;;;3.17;;
37267;SDS011;23154;52.542;13.362;2022-08-23T14:57:30;10.50;;;2.50;;
37267;SDS011;23154;52.542;13.362;2022-08-23T14:59:55;11.07;;;2.50;;
37267;SDS011;23154;52.542;13.362;2022-08-23T15:02:22;12.65;;;2.95;;
37267;SDS011;23154;52.542;13.362;2022-08-23T15:04:50;13.00;;;2.80;;
37267;SDS011;23154;52.542;13.362;2022-08-23T15:07:16;10.57;;;3.05;;
37267;SDS011;23154;52.542;13.362;2022-08-23T15:09:42;10.13;;;2.55;;
37267;SDS011;23154;52.542;13.362;2022-08-23T15:12:09;10.98;;;2.67;;
37267;SDS011;23154;52.542;13.362;2022-08-23T15:14:34;8.63;;;2.50;;
37267;SDS011;23154;52.542;13.362;2022-08-23T15:17:00;19.02;;;3.70;;
37267;SDS011;23154;52.542;13.362;2022-08-23T15:19:27;11.73;;;2.80;;
37267;SDS011;23154;52.542;13.362;2022-08-23T15:21:54;21.70;;;4.47;;
37267;SDS011;23154;52.542;13.362;2022-08-23T15:24:20;13.00;;;3.05;;
37267;SDS011;23154;52.542;13.362;2022-08-23T15:26:45;15.38;;;3.78;;
37267;SDS011;23154;52.542;13.362;2022-08-23T15:29:12;13.88;;;3.28;;
37267;SDS011;23154;52.542;13.362;2022-08-23T15:31:38;13.68;;;3.20;;
37267;SDS011;23154;52.542;13.362;2022-08-23T15:34:04;13.27;;;3.00;;
37267;SDS011;23154;52.542;13.362;2022-08-23T15:36:29;15.13;;;3.05;;
37267;SDS011;23154;52.542;13.362;2022-08-23T15:39:00;14.70;;;2.72;;
37267;SDS011;23154;52.542;13.362;2022-08-23T15:41:26;9.95;;;2.70;;
37267;SDS011;23154;52.542;13.362;2022-08-23T15:43:51;10.75;;;2.60;;
37267;SDS011;23154;52.542;13.362;2022-08-23T15:46:19;11.50;;;2.58;;
37267;SDS011;23154;52.542;13.362;2022-08-23T15:48:52;12.88;;;3.10;;
37267;SDS011;23154;52.542;13.362;2022-08-23T15:51:21;11.85;;;2.88;;
37267;SDS011;23154;52.542;13.362;2022-08-23T15:53:48;13.93;;;2.38;;
37267;SDS011;23154;52.542;13.362;2022-08-23T15:56:14;11.57;;;3.10;;
37267;SDS011;23154;52.542;13.362;2022-08-23T15:58:45;11.15;;;2.80;;
37267;SDS011;23154;52.542;13.362;2022-08-23T16:01:11;12.57;;;2.70;;
37267;SDS011;23154;52.542;13.362;2022-08-23T16:03:37;9.65;;;2.78;;
37267;SDS011;23154;52.542;13.362;2022-08-23T16:06:06;12.60;;;3.17;;
37267;SDS011;23154;52.542;13.362;2022-08-23T16:08:35;9.88;;;2.42;;
37267;SDS011;23154;52.542;13.362;2022-08-23T16:11:02;11.55;;;2.70;;
37267;SDS011;23154;52.542;13.362;2022-08-23T16:13:34;14.25;;;3.40;;
37267;SDS011;23154;52.542;13.362;2022-08-23T16:16:01;11.70;;;3.40;;
37267;SDS011;23154;52.542;13.362;2022-08-23T16:18:27;10.65;;;2.47;;
37267;SDS011;23154;52.542;13.362;2022-08-23T16:20:52;13.57;;;2.70;;
37267;SDS011;23154;52.542;13.362;2022-08-23T16:23:18;10.52;;;2.85;;
37267;SDS011;23154;52.542;13.362;2022-08-23T16:25:43;10.52;;;2.72;;
37267;SDS011;23154;52.542;13.362;2022-08-23T16:28:09;12.23;;;2.50;;
37267;SDS011;23154;52.542;13.362;2022-08-23T16:30:35;10.45;;;2.42;;
37267;SDS011;23154;52.542;13.362;2022-08-23T16:33:00;10.13;;;2.72;;
37267;SDS011;23154;52.542;13.362;2022-08-23T16:35:26;11.60;;;2.50;;
37267;SDS011;23154;52.542;13.362;2022-08-23T16:37:52;13.70;;;2.80;;
37267;SDS011;23154;52.542;13.362;2022-08-23T16:40:18;10.48;;;2.50;;
37267;SDS011;23154;52.542;13.362;2022-08-23T16:42:44;13.93;;;2.83;;
37267;SDS011;23154;52.542;13.362;2022-08-23T16:45:10;10.77;;;2.60;;
37267;SDS011;23154;52.542;13.362;2022-08-23T16:47:40;16.08;;;3.05;;